KSMX/SMX METAR and TAF weather

Enter ICAO airport designator
Station Type Date Time Source
KSMX METAR 2019/08/19 07:51 UTC NOAA

KSMX 190751Z AUTO 00000KT 10SM CLR 14/12 A2996 RMK AO2 SLP145 T01440117 402390144 TSNO $


Station Type Date Time Source
KSMX Decoded METAR 2019/08/19 07:51 UTC NOAA

Station name not available
Aug 19, 2019 - 03:51 AM EDT / 2019.08.19 0751 UTC
Wind: Calm:0
Visibility: 10 mile(s):0
Sky conditions: clear
Temperature: 57.9 F (14.4 C)
Dew Point: 53.1 F (11.7 C)
Relative Humidity: 83%
Pressure (altimeter): 29.96 in. Hg (1014 hPa)
ob: KSMX 190751Z AUTO 00000KT 10SM CLR 14/12 A2996 RMK AO2 SLP145 T01440117 402390144 TSNO
cycle: 8

Station Type Date Time Source
KSMX TAF 2019/08/19 06:39 UTC NOAA

TAF KSMX 190537Z 1906/2006 30006KT P6SM BKN009
FM190900 VRB03KT 5SM BR OVC005
FM191200 00000KT 2SM BR OVC003
FM191500 VRB03KT 5SM BR OVC005
FM191630 VRB03KT P6SM BKN008
FM191800 31007KT P6SM SKC
FM192000 30015KT P6SM SKC
FM200300 31007KT P6SM BKN007

Example: see airport list